Time;durP1;ratioP1;P1;durP2;ratioP2;P2;SDS_P1;SDS_P2;PMS_P1;PMS_P2;Temp;Humidity;BMP_temperature;BMP_pressure;BME280_temperature;BME280_humidity;BME280_pressure;Samples;Min_cycle;Max_cycle;Signal;HPM_P1;HPM_P2
2021/11/08 00:00:29;;;;;;;28.40;21.97;;;;;;;11.10;70.38;101494.66;2072810;28;20950;-67
2021/11/08 00:01:30;;;;;;;25.40;20.63;;;;;;;10.90;70.60;101472.31;2072062;28;20475;-67
2021/11/08 00:02:31;;;;;;;25.60;20.97;;;;;;;11.38;70.38;101536.69;2071477;28;20417;-68
2021/11/08 00:03:33;;;;;;;31.30;21.57;;;;;;;11.07;70.31;101495.50;2072264;28;20429;-68
2021/11/08 00:04:34;;;;;;;28.27;21.57;;;;;;;11.30;70.58;101538.00;2072146;28;20415;-68
2021/11/08 00:05:39;;;;;;;26.37;20.87;;;;;;;11.24;70.80;101520.25;2071763;28;20455;-68
2021/11/08 00:06:39;;;;;;;27.10;20.40;;;;;;;11.35;70.66;101547.84;2072500;28;20439;-68
2021/11/08 00:07:40;;;;;;;27.30;19.77;;;;;;;10.69;70.66;101436.53;2072759;28;20929;-68
2021/11/08 00:08:41;;;;;;;26.33;20.43;;;;;;;11.26;70.44;101534.50;2072687;28;20216;-68
2021/11/08 00:09:43;;;;;;;29.30;21.40;;;;;;;11.16;70.50;101515.97;2071974;28;20200;-69
2021/11/08 00:10:46;;;;;;;26.00;20.80;;;;;;;11.14;70.42;101507.31;2071450;28;20249;-69
2021/11/08 00:11:47;;;;;;;30.23;21.83;;;;;;;11.15;70.49;101503.31;2072161;28;20420;-68
2021/11/08 00:12:47;;;;;;;28.17;20.90;;;;;;;11.37;70.58;101539.91;2071947;28;20451;-68
2021/11/08 00:13:48;;;;;;;26.67;20.80;;;;;;;11.36;70.48;101532.78;2072299;28;20188;-69
2021/11/08 00:14:53;;;;;;;27.70;21.27;;;;;;;11.36;70.52;101530.78;2071620;28;20178;-69
2021/11/08 00:17:26;;;;;;;29.00;21.13;;;;;;;11.39;70.53;101526.41;2072234;28;20986;-69
2021/11/08 00:18:35;;;;;;;30.33;20.50;;;;;;;11.40;70.74;101517.66;2072624;28;20409;-69
2021/11/08 00:20:50;;;;;;;27.93;21.80;;;;;;;11.08;70.44;101475.66;2072109;28;20432;-69
2021/11/08 00:21:51;;;;;;;28.13;20.77;;;;;;;11.29;70.63;101494.81;2072211;28;20883;-69
2021/11/08 00:22:51;;;;;;;29.63;21.60;;;;;;;10.94;70.44;101442.56;2071101;28;20507;-69
2021/11/08 00:23:52;;;;;;;28.90;20.83;;;;;;;11.34;70.42;101510.22;2072248;28;20419;-69
2021/11/08 00:24:53;;;;;;;30.73;22.63;;;;;;;11.32;70.71;101516.16;2070994;28;20675;-69
2021/11/08 00:25:55;;;;;;;26.47;21.63;;;;;;;11.32;70.66;101520.94;2071309;28;20189;-68
2021/11/08 00:26:56;;;;;;;28.93;22.17;;;;;;;11.33;70.83;101522.53;2070655;28;20706;-69
2021/11/08 00:27:57;;;;;;;30.43;22.43;;;;;;;11.29;70.92;101505.91;2072280;28;20866;-69
2021/11/08 00:28:58;;;;;;;29.53;21.73;;;;;;;11.36;70.87;101513.34;2072301;28;20177;-69
2021/11/08 00:29:58;;;;;;;29.93;21.73;;;;;;;11.12;71.01;101464.53;2072564;28;20424;-69
2021/11/08 00:30:59;;;;;;;28.43;21.70;;;;;;;11.18;70.90;101482.28;2072415;28;20244;-68
2021/11/08 00:32:01;;;;;;;38.17;23.47;;;;;;;11.40;70.77;101509.34;2071722;28;20193;-69
2021/11/08 00:33:02;;;;;;;29.53;22.57;;;;;;;11.41;70.48;101513.69;2070898;28;20200;-69
2021/11/08 00:34:02;;;;;;;30.97;21.97;;;;;;;11.43;70.65;101519.59;2072519;28;20562;-69
2021/11/08 00:35:03;;;;;;;32.27;22.03;;;;;;;11.25;70.69;101482.97;2071544;28;20559;-69
2021/11/08 00:36:04;;;;;;;33.43;22.70;;;;;;;11.44;70.76;101510.09;2072403;28;20166;-69
2021/11/08 00:37:05;;;;;;;28.53;21.93;;;;;;;11.27;70.68;101494.44;2071331;28;20177;-69
2021/11/08 00:38:07;;;;;;;34.97;25.77;;;;;;;11.28;70.65;101500.78;2072272;28;20475;-69
2021/11/08 00:39:09;;;;;;;35.93;24.93;;;;;;;10.90;71.25;101458.44;2072294;28;20428;-69
2021/11/08 00:40:10;;;;;;;38.30;27.40;;;;;;;10.75;71.59;101448.72;2071281;28;20515;-69
2021/11/08 00:41:11;;;;;;;36.87;25.63;;;;;;;11.08;71.48;101500.63;2071291;28;20436;-69
2021/11/08 00:42:12;;;;;;;40.57;27.07;;;;;;;11.18;71.60;101519.13;2071175;28;20404;-69
2021/11/08 00:43:13;;;;;;;39.37;25.47;;;;;;;11.16;71.54;101515.97;2072256;28;20176;-69
2021/11/08 00:44:13;;;;;;;32.57;24.73;;;;;;;11.24;71.63;101517.47;2072183;28;20205;-69
2021/11/08 00:45:14;;;;;;;35.23;25.20;;;;;;;11.17;71.42;101492.59;2071883;28;20425;-69
2021/11/08 00:46:14;;;;;;;33.47;24.93;;;;;;;11.28;71.78;101498.78;2072629;28;20192;-70
2021/11/08 00:47:15;;;;;;;35.80;26.77;;;;;;;11.30;71.56;101498.38;2072117;28;20192;-70
2021/11/08 00:48:19;;;;;;;37.47;26.43;;;;;;;11.34;71.47;101501.88;2071140;28;20320;-69
2021/11/08 00:49:20;;;;;;;40.07;27.10;;;;;;;11.30;71.34;101490.03;2072138;28;20445;-70
2021/11/08 00:50:21;;;;;;;34.83;24.83;;;;;;;11.33;71.27;101486.44;2072496;28;20515;-69
2021/11/08 00:51:22;;;;;;;32.17;24.67;;;;;;;11.42;71.44;101478.41;2071381;28;20232;-69
2021/11/08 00:52:23;;;;;;;34.97;25.27;;;;;;;11.09;71.36;101424.53;2070222;28;20420;-70
2021/11/08 00:53:24;;;;;;;40.80;27.30;;;;;;;11.37;71.23;101465.75;2072270;28;20463;-69
2021/11/08 00:54:26;;;;;;;37.57;26.50;;;;;;;11.45;71.33;101481.13;2071472;28;20420;-69
2021/11/08 00:55:29;;;;;;;34.93;25.67;;;;;;;11.50;71.24;101477.09;2070616;28;20276;-69
2021/11/08 00:56:30;;;;;;;35.27;25.77;;;;;;;11.19;70.87;101425.59;2071837;28;20471;-69
2021/11/08 00:57:33;;;;;;;39.00;25.27;;;;;;;11.52;70.92;101471.91;2072376;28;20516;-70
2021/11/08 00:58:37;;;;;;;31.60;24.37;;;;;;;11.55;71.06;101473.84;2078634;28;20181;-69
2021/11/08 00:59:38;;;;;;;35.23;24.53;;;;;;;11.59;70.98;101467.06;2078982;28;20514;-66
2021/11/08 01:00:39;;;;;;;36.10;25.37;;;;;;;11.40;70.81;101430.84;2062915;28;20493;-70
2021/11/08 01:01:42;;;;;;;34.70;24.60;;;;;;;11.61;70.52;101461.09;2062524;28;20928;-70
2021/11/08 01:02:43;;;;;;;33.40;24.67;;;;;;;11.60;70.72;101462.28;2063205;28;20436;-70
2021/11/08 01:03:45;;;;;;;35.37;24.57;;;;;;;11.52;70.76;101439.38;2064182;28;20425;-70
2021/11/08 01:04:45;;;;;;;37.43;25.40;;;;;;;11.37;70.70;101417.81;2063411;28;20424;-70
2021/11/08 01:05:46;;;;;;;36.73;24.80;;;;;;;11.33;70.95;101409.50;2064094;28;20460;-70
2021/11/08 01:06:48;;;;;;;30.80;24.57;;;;;;;11.59;70.92;101450.38;2064049;28;20738;-70
2021/11/08 01:07:49;;;;;;;33.67;25.27;;;;;;;11.58;71.02;101459.13;2064253;28;21336;-69
2021/11/08 01:08:49;;;;;;;33.93;23.63;;;;;;;11.61;71.00;101455.53;2063230;28;20952;-70
2021/11/08 01:09:50;;;;;;;35.40;24.50;;;;;;;11.61;70.82;101450.78;2063916;28;20656;-69
2021/11/08 01:10:52;;;;;;;32.90;25.00;;;;;;;11.57;70.90;101454.75;2064026;28;20190;-70
2021/11/08 01:11:52;;;;;;;33.57;25.87;;;;;;;11.25;71.23;101410.03;2063586;28;20182;-69
2021/11/08 01:12:53;;;;;;;35.30;25.80;;;;;;;11.44;71.20;101439.91;2062938;28;20425;-69
2021/11/08 01:13:53;;;;;;;38.50;27.20;;;;;;;11.51;71.20;101453.66;2063304;28;20190;-70
2021/11/08 01:14:54;;;;;;;33.90;25.13;;;;;;;11.27;71.32;101422.28;2062929;28;20723;-69
2021/11/08 01:15:57;;;;;;;35.23;26.53;;;;;;;11.45;71.47;101453.38;2068820;28;20190;-70
2021/11/08 01:16:58;;;;;;;35.20;24.97;;;;;;;11.47;71.53;101464.81;2071723;28;20640;-69
2021/11/08 01:17:58;;;;;;;32.77;24.90;;;;;;;11.45;71.32;101472.78;2071245;28;20965;-69
2021/11/08 01:18:59;;;;;;;34.43;25.10;;;;;;;11.39;71.21;101470.91;2071205;28;20666;-70
2021/11/08 01:20:00;;;;;;;31.97;23.77;;;;;;;11.12;71.62;101447.88;2070949;28;20212;-69
2021/11/08 01:21:02;;;;;;;38.27;23.73;;;;;;;11.04;71.62;101444.41;2071992;28;20421;-70
2021/11/08 01:22:07;;;;;;;34.20;24.03;;;;;;;11.41;71.43;101493.47;2071535;28;20166;-70
2021/11/08 01:23:08;;;;;;;34.63;24.80;;;;;;;11.44;71.31;101503.75;2071241;28;20413;-70
2021/11/08 01:24:09;;;;;;;32.23;24.00;;;;;;;11.47;71.20;101516.78;2072242;28;20713;-69
2021/11/08 01:25:11;;;;;;;33.80;26.33;;;;;;;11.47;71.12;101500.13;2071022;28;20185;-69
2021/11/08 01:26:13;;;;;;;35.13;26.57;;;;;;;11.16;71.26;101460.50;2071897;28;20804;-69
2021/11/08 01:27:14;;;;;;;36.37;26.97;;;;;;;11.40;71.23;101481.59;2071607;28;20416;-70
2021/11/08 01:28:14;;;;;;;36.50;26.93;;;;;;;11.39;71.12;101476.44;2072253;28;20515;-70
2021/11/08 01:29:15;;;;;;;36.57;26.00;;;;;;;11.39;71.36;101473.66;2071701;28;20295;-69
2021/11/08 01:30:19;;;;;;;35.83;26.40;;;;;;;11.03;71.19;101409.56;2071076;28;20186;-70
2021/11/08 01:31:20;;;;;;;32.87;25.50;;;;;;;11.44;71.38;101484.31;2071959;28;20193;-70
2021/11/08 01:32:21;;;;;;;31.90;24.97;;;;;;;11.36;71.46;101466.16;2070576;28;20409;-70
2021/11/08 01:33:22;;;;;;;31.57;25.43;;;;;;;11.49;71.31;101481.06;2072127;28;20421;-70
2021/11/08 01:34:25;;;;;;;34.43;25.53;;;;;;;11.46;71.32;101479.91;2071593;28;20252;-69
2021/11/08 01:35:38;;;;;;;31.93;25.33;;;;;;;11.42;71.57;101476.41;2071224;28;20428;-69
2021/11/08 01:36:41;;;;;;;37.67;25.77;;;;;;;11.34;71.51;101477.72;2072125;28;20405;-69
2021/11/08 01:37:50;;;;;;;32.53;24.07;;;;;;;11.37;71.74;101479.63;2071874;28;20432;-69
2021/11/08 01:38:55;;;;;;;32.43;24.03;;;;;;;11.39;71.73;101490.31;2071094;28;20435;-69
2021/11/08 01:39:57;;;;;;;32.40;24.20;;;;;;;10.93;71.49;101449.31;2071129;28;20417;-69
2021/11/08 01:40:58;;;;;;;31.47;24.83;;;;;;;11.00;71.71;101437.31;2071144;28;20455;-69
2021/11/08 01:42:07;;;;;;;33.63;24.67;;;;;;;11.37;71.68;101496.28;2071165;28;20442;-69
2021/11/08 01:43:10;;;;;;;27.13;23.03;;;;;;;11.24;71.60;101472.28;2070754;28;20424;-69
2021/11/08 01:44:11;;;;;;;30.77;23.60;;;;;;;11.37;71.65;101492.75;2071549;28;20450;-69
2021/11/08 01:45:12;;;;;;;33.03;24.17;;;;;;;11.32;71.82;101504.31;2078820;28;20494;-69
2021/11/08 01:46:13;;;;;;;33.17;24.20;;;;;;;11.34;71.87;101497.13;2072058;28;20158;-69
2021/11/08 01:47:14;;;;;;;31.03;22.33;;;;;;;10.83;71.83;101418.94;2071769;28;20189;-69
2021/11/08 01:48:14;;;;;;;29.70;22.63;;;;;;;11.36;71.88;101485.59;2071882;28;20416;-69
2021/11/08 01:49:14;;;;;;;31.70;22.77;;;;;;;10.92;72.00;101413.66;2071968;28;20236;-69
2021/11/08 01:50:15;;;;;;;35.33;23.53;;;;;;;11.01;71.83;101436.91;2071664;28;20204;-69
2021/11/08 01:51:16;;;;;;;32.37;23.50;;;;;;;10.96;71.80;101417.97;2071456;28;20170;-69
2021/11/08 01:52:17;;;;;;;29.80;22.30;;;;;;;11.40;71.64;101475.25;2068817;28;20200;-69
2021/11/08 01:53:19;;;;;;;33.93;23.60;;;;;;;11.40;71.47;101466.91;2071228;28;20448;-69
2021/11/08 01:54:19;;;;;;;33.00;23.83;;;;;;;11.16;72.01;101479.13;2072265;28;20474;-66
2021/11/08 01:55:21;;;;;;;30.87;24.73;;;;;;;11.14;72.41;101473.22;2070728;28;20421;-66
2021/11/08 01:56:23;;;;;;;31.63;24.60;;;;;;;11.09;72.96;101504.97;2071760;28;20189;-69
2021/11/08 01:57:23;;;;;;;33.57;24.97;;;;;;;11.11;73.06;101496.22;2071969;28;20463;-66
2021/11/08 01:58:29;;;;;;;30.23;23.27;;;;;;;11.12;72.76;101492.28;2071925;28;20424;-68
2021/11/08 01:59:30;;;;;;;35.20;23.77;;;;;;;11.15;72.71;101483.91;2071518;28;20191;-69
2021/11/08 02:00:33;;;;;;;31.90;22.93;;;;;;;11.21;72.56;101484.22;2071387;28;20419;-69
2021/11/08 02:01:34;;;;;;;32.23;22.87;;;;;;;11.24;72.48;101486.97;2071423;28;20854;-68
2021/11/08 02:02:35;;;;;;;29.30;22.73;;;;;;;11.27;72.52;101493.66;2069926;28;20431;-68
2021/11/08 02:03:36;;;;;;;30.70;23.33;;;;;;;11.28;72.37;101487.69;2071579;28;20978;-68
2021/11/08 02:04:36;;;;;;;32.50;23.73;;;;;;;10.99;72.39;101431.00;2070781;28;20239;-68
2021/11/08 02:05:37;;;;;;;29.67;22.50;;;;;;;10.98;72.31;101434.19;2071548;28;20174;-67
2021/11/08 02:06:38;;;;;;;28.03;23.13;;;;;;;10.93;71.97;101429.91;2072010;28;20659;-68
2021/11/08 02:07:39;;;;;;;30.70;22.90;;;;;;;10.97;72.14;101433.38;2071565;28;20177;-68
2021/11/08 02:08:40;;;;;;;28.47;22.60;;;;;;;10.77;72.00;101392.88;2071885;28;20424;-68
2021/11/08 02:09:41;;;;;;;26.60;21.20;;;;;;;11.38;72.20;101472.09;2071810;28;20181;-67
2021/11/08 02:10:42;;;;;;;29.90;21.67;;;;;;;11.39;71.96;101457.81;2071614;28;20424;-67
2021/11/08 02:11:43;;;;;;;31.37;22.97;;;;;;;11.39;72.17;101455.03;2070966;28;20194;-66
2021/11/08 02:12:44;;;;;;;32.17;23.87;;;;;;;11.40;72.21;101453.03;2070747;28;20500;-66
2021/11/08 02:13:45;;;;;;;27.93;22.50;;;;;;;11.12;72.05;101434.78;2071440;28;20745;-67
2021/11/08 02:14:45;;;;;;;28.37;23.30;;;;;;;11.42;71.99;101464.53;2071425;28;20408;-68
2021/11/08 02:15:45;;;;;;;29.03;23.53;;;;;;;11.40;72.12;101447.47;2071578;28;20185;-67
2021/11/08 02:16:46;;;;;;;30.63;23.40;;;;;;;10.80;72.17;101367.84;2071861;28;20690;-67
2021/11/08 02:17:48;;;;;;;30.50;23.57;;;;;;;11.26;72.31;101445.69;2071611;28;20829;-68
2021/11/08 02:18:49;;;;;;;31.60;24.87;;;;;;;11.09;72.87;101424.53;2072002;28;20246;-68
2021/11/08 02:19:56;;;;;;;32.53;23.47;;;;;;;10.60;73.29;101355.84;2071689;28;20891;-68
2021/11/08 02:20:57;;;;;;;31.83;24.23;;;;;;;11.08;73.38;101430.50;2071408;28;20224;-68
2021/11/08 02:22:01;;;;;;;29.23;23.60;;;;;;;11.18;73.14;101446.97;2071190;28;20421;-67
2021/11/08 02:23:06;;;;;;;32.83;25.03;;;;;;;11.18;72.97;101466.41;2070458;28;20443;-67
2021/11/08 02:24:12;;;;;;;33.77;24.47;;;;;;;11.19;73.35;101481.88;2070601;28;20428;-68
2021/11/08 02:25:15;;;;;;;34.33;24.40;;;;;;;11.09;73.38;101501.41;2071133;28;20400;-68
2021/11/08 02:26:17;;;;;;;32.73;23.00;;;;;;;11.19;73.15;101506.03;2071654;28;20564;-67
2021/11/08 02:27:19;;;;;;;35.23;23.63;;;;;;;11.24;73.10;101497.25;2071502;28;20397;-68
2021/11/08 02:28:21;;;;;;;31.17;23.93;;;;;;;11.29;72.77;101469.06;2071868;28;20514;-68
2021/11/08 02:29:22;;;;;;;30.77;23.30;;;;;;;11.28;72.85;101465.47;2071794;28;20459;-68
2021/11/08 02:30:27;;;;;;;30.47;24.50;;;;;;;11.34;72.75;101469.38;2071865;28;20495;-67
2021/11/08 02:31:30;;;;;;;36.07;24.40;;;;;;;11.02;72.68;101421.84;2071327;28;20892;-67
2021/11/08 02:32:31;;;;;;;33.63;23.90;;;;;;;11.28;72.66;101445.28;2070986;28;20483;-67
2021/11/08 02:33:31;;;;;;;35.17;24.07;;;;;;;11.45;72.56;101450.59;2071626;28;21068;-67
2021/11/08 02:34:32;;;;;;;33.37;23.30;;;;;;;11.45;72.50;101456.16;2070327;28;20622;-68
2021/11/08 02:35:33;;;;;;;33.17;24.73;;;;;;;11.25;72.44;101433.03;2071679;28;20436;-68
2021/11/08 02:36:37;;;;;;;33.37;24.50;;;;;;;11.51;72.40;101476.66;2071858;28;20186;-68
2021/11/08 02:37:39;;;;;;;35.20;22.83;;;;;;;11.52;72.15;101471.91;2071746;28;20404;-68
2021/11/08 02:38:44;;;;;;;34.07;24.07;;;;;;;11.52;72.13;101455.25;2070976;28;20424;-68
2021/11/08 02:39:47;;;;;;;29.93;23.53;;;;;;;11.57;72.01;101451.97;2071338;28;20407;-68
2021/11/08 02:40:48;;;;;;;31.63;23.57;;;;;;;11.55;72.09;101452.44;2071607;28;20466;-67
2021/11/08 02:41:49;;;;;;;32.43;25.50;;;;;;;11.54;72.23;101450.84;2071003;28;20946;-67
2021/11/08 02:42:53;;;;;;;36.43;23.53;;;;;;;11.22;72.06;101386.69;2070571;28;20804;-68
2021/11/08 02:43:55;;;;;;;33.20;23.70;;;;;;;11.35;72.12;101415.44;2071762;28;20166;-68
2021/11/08 02:44:55;;;;;;;30.53;23.67;;;;;;;10.86;72.36;101344.00;2070538;28;20428;-68
2021/11/08 02:46:06;;;;;;;32.83;23.33;;;;;;;11.58;72.32;101446.03;2071084;28;20421;-68
2021/11/08 02:47:06;;;;;;;35.43;23.40;;;;;;;11.23;72.16;101384.72;2071223;28;20193;-68
2021/11/08 02:48:07;;;;;;;30.83;22.93;;;;;;;11.26;72.06;101381.09;2071484;28;20441;-67
2021/11/08 02:49:10;;;;;;;32.37;23.37;;;;;;;11.66;72.00;101455.84;2071734;28;20203;-68
2021/11/08 02:50:12;;;;;;;33.17;24.07;;;;;;;11.66;72.10;101447.53;2071785;28;20232;-68
2021/11/08 02:51:24;;;;;;;31.57;23.53;;;;;;;11.53;71.82;101424.28;2071732;28;20420;-68
2021/11/08 02:52:26;;;;;;;32.53;23.83;;;;;;;11.74;72.02;101453.75;2070383;28;20622;-68
2021/11/08 02:53:26;;;;;;;32.77;23.60;;;;;;;11.76;71.78;101440.22;2071467;28;20861;-68
2021/11/08 02:54:33;;;;;;;33.63;23.23;;;;;;;11.74;71.85;101437.88;2071765;28;20413;-68
2021/11/08 02:55:34;;;;;;;32.03;23.43;;;;;;;11.74;71.83;101437.09;2070400;28;20181;-68
2021/11/08 02:56:34;;;;;;;35.97;23.73;;;;;;;11.70;72.17;101428.03;2072594;28;20487;-68
2021/11/08 02:57:36;;;;;;;28.90;23.00;;;;;;;11.59;72.26;101411.53;2073301;28;21048;-67
2021/11/08 02:58:39;;;;;;;36.63;24.63;;;;;;;11.70;72.18;101409.41;2073254;28;20555;-68
2021/11/08 02:59:39;;;;;;;32.07;22.90;;;;;;;11.28;72.11;101328.75;2073037;28;20421;-68
2021/11/08 03:00:40;;;;;;;33.40;22.77;;;;;;;11.39;72.06;101349.59;2072529;28;20428;-68
2021/11/08 03:01:42;;;;;;;31.53;23.30;;;;;;;11.38;72.47;101361.09;2072661;28;20786;-68
2021/11/08 03:02:44;;;;;;;35.73;24.40;;;;;;;11.56;72.61;101390.16;2071888;28;20166;-68
2021/11/08 03:03:58;;;;;;;34.90;24.37;;;;;;;11.61;72.52;101383.34;2072850;28;20506;-67
2021/11/08 03:04:58;;;;;;;35.33;24.13;;;;;;;11.63;72.35;101386.50;2072596;28;20420;-68
2021/11/08 03:06:04;;;;;;;34.37;23.13;;;;;;;11.45;72.40;101363.75;2073045;28;20397;-68
2021/11/08 03:07:05;;;;;;;29.60;22.43;;;;;;;11.70;72.25;101428.03;2072776;28;20257;-68
2021/11/08 03:08:09;;;;;;;36.73;24.83;;;;;;;11.47;72.31;101405.78;2073251;28;20416;-68
2021/11/08 03:09:17;;;;;;;40.30;24.60;;;;;;;11.67;72.41;101438.00;2073203;28;20331;-68
2021/11/08 03:10:21;;;;;;;35.57;23.17;;;;;;;11.67;72.50;101438.00;2073251;28;20432;-68
2021/11/08 03:11:23;;;;;;;32.50;23.83;;;;;;;11.67;72.21;101435.22;2072540;28;20420;-68
2021/11/08 03:12:29;;;;;;;33.47;24.13;;;;;;;11.73;72.46;101436.31;2079751;28;20755;-68
2021/11/08 03:13:33;;;;;;;33.07;23.83;;;;;;;11.76;72.39;101441.03;2079439;28;21013;-68
2021/11/08 03:14:37;;;;;;;39.10;23.80;;;;;;;11.81;72.37;101436.97;2072586;28;20448;-68
2021/11/08 03:16:56;;;;;;;31.37;23.57;;;;;;;11.84;72.28;101427.81;2072589;28;20408;-68
2021/11/08 03:18:06;;;;;;;35.83;23.23;;;;;;;11.59;72.03;101367.09;2080045;28;20461;-68
2021/11/08 03:19:19;;;;;;;39.63;24.90;;;;;;;11.70;72.21;101387.19;2078900;28;20545;-68
2021/11/08 03:20:20;;;;;;;36.97;24.70;;;;;;;11.73;72.44;101391.88;2073182;28;20405;-68
2021/11/08 03:21:22;;;;;;;42.20;25.00;;;;;;;11.80;72.31;101386.22;2073072;28;20910;-68
2021/11/08 03:22:30;;;;;;;36.50;24.97;;;;;;;11.83;72.57;101373.47;2072044;28;20415;-68
2021/11/08 03:23:31;;;;;;;38.00;24.50;;;;;;;11.87;72.40;101371.41;2072348;28;20401;-68
2021/11/08 03:27:57;;;;;;;36.50;25.77;;;;;;;11.68;73.46;101388.81;2079920;28;20428;-68
2021/11/08 03:28:32;;;;;;;36.07;25.53;;;;;;;11.66;73.69;101394.78;2065288;28;20485;-67
2021/11/08 03:29:33;;;;;;;42.53;28.77;;;;;;;11.55;73.46;101371.13;2073041;28;20426;-68
2021/11/08 03:30:37;;;;;;;44.10;27.83;;;;;;;11.68;73.88;101399.91;2073093;28;20211;-68
2021/11/08 03:31:40;;;;;;;42.87;28.70;;;;;;;11.53;73.75;101379.88;2072348;28;20185;-68
2021/11/08 03:32:45;;;;;;;42.77;28.47;;;;;;;11.40;73.57;101333.69;2072253;28;21146;-67
2021/11/08 03:33:47;;;;;;;44.23;29.53;;;;;;;11.77;73.59;101373.16;2072776;28;20437;-67
2021/11/08 03:35:59;;;;;;;47.60;29.50;;;;;;;11.50;73.38;101313.31;2073099;28;20408;-68
2021/11/08 03:37:00;;;;;;;46.40;29.33;;;;;;;11.82;73.54;101363.56;2073042;28;20464;-68
2021/11/08 03:38:03;;;;;;;54.13;31.57;;;;;;;11.78;74.08;101362.84;2072459;28;20433;-68
2021/11/08 03:39:05;;;;;;;55.53;30.33;;;;;;;11.81;74.07;101359.22;2072142;28;21000;-68
2021/11/08 03:40:08;;;;;;;56.93;30.97;;;;;;;11.55;73.65;101307.28;2073051;28;20475;-68
2021/11/08 03:41:10;;;;;;;51.40;30.53;;;;;;;11.88;73.95;101357.09;2072716;28;20428;-67
2021/11/08 03:42:11;;;;;;;46.20;27.90;;;;;;;11.88;73.64;101356.34;2071492;28;20435;-68
2021/11/08 03:43:15;;;;;;;48.93;27.50;;;;;;;11.93;73.96;101364.19;2072779;28;20416;-68
2021/11/08 03:44:16;;;;;;;59.57;31.37;;;;;;;11.92;74.06;101370.94;2072504;28;20265;-68
2021/11/08 03:45:17;;;;;;;57.17;28.33;;;;;;;11.91;74.02;101361.81;2072145;28;20602;-68
2021/11/08 03:46:18;;;;;;;53.90;29.00;;;;;;;11.91;73.86;101366.59;2073212;28;20900;-68
2021/11/08 03:47:19;;;;;;;48.80;28.10;;;;;;;11.85;73.95;101351.63;2072781;28;20870;-68
2021/11/08 03:48:20;;;;;;;50.30;27.80;;;;;;;12.05;73.66;101374.69;2072749;28;20230;-68
2021/11/08 03:49:20;;;;;;;44.30;26.93;;;;;;;12.01;73.62;101349.75;2071623;28;20267;-68
2021/11/08 03:50:22;;;;;;;44.33;27.13;;;;;;;12.03;73.67;101357.63;2072912;28;20208;-68
2021/11/08 03:51:22;;;;;;;44.60;26.60;;;;;;;12.02;73.76;101358.84;2072582;28;20178;-68
2021/11/08 03:52:23;;;;;;;45.57;25.90;;;;;;;11.95;74.21;101359.75;2071725;28;20434;-67
2021/11/08 03:53:24;;;;;;;47.93;27.20;;;;;;;11.72;74.38;101357.00;2072878;28;20272;-68
2021/11/08 03:54:24;;;;;;;47.70;27.40;;;;;;;11.67;75.02;101363.03;2072584;28;20177;-68
2021/11/08 03:55:25;;;;;;;49.77;27.50;;;;;;;11.53;75.43;101351.34;2071729;28;20192;-67
2021/11/08 03:56:26;;;;;;;51.60;27.97;;;;;;;11.79;75.32;101375.53;2072618;28;20664;-66
2021/11/08 03:57:27;;;;;;;47.90;28.43;;;;;;;11.86;75.13;101373.41;2072561;28;20424;-67
2021/11/08 03:58:28;;;;;;;45.93;27.33;;;;;;;11.93;74.92;101366.97;2072839;28;20185;-67
2021/11/08 03:59:28;;;;;;;53.87;29.10;;;;;;;11.66;74.73;101327.34;2072049;28;20474;-67
2021/11/08 04:00:29;;;;;;;56.03;29.93;;;;;;;11.95;74.69;101381.97;2072282;28;20212;-65
2021/11/08 04:01:35;;;;;;;63.33;30.13;;;;;;;11.89;75.00;101394.00;2072014;28;20185;-66
2021/11/08 04:02:36;;;;;;;55.70;29.10;;;;;;;11.77;75.04;101411.25;2071922;28;20419;-66
2021/11/08 04:03:37;;;;;;;52.47;27.33;;;;;;;11.62;75.00;101337.72;2072450;28;20808;-66
2021/11/08 04:04:37;;;;;;;44.50;26.40;;;;;;;11.99;74.61;101381.94;2072142;28;20409;-66
2021/11/08 04:05:40;;;;;;;50.60;27.80;;;;;;;11.88;74.71;101365.44;2071574;28;20185;-67
2021/11/08 04:06:41;;;;;;;53.43;29.00;;;;;;;12.07;74.76;101391.69;2072195;28;20182;-68
2021/11/08 04:07:43;;;;;;;50.03;28.33;;;;;;;12.11;74.35;101396.00;2072775;28;20482;-67
2021/11/08 04:08:44;;;;;;;45.70;28.13;;;;;;;12.05;74.47;101402.44;2072616;28;20432;-67
2021/11/08 04:09:44;;;;;;;51.13;28.03;;;;;;;11.43;74.68;101327.31;2072660;28;20981;-67
2021/11/08 04:10:48;;;;;;;46.83;26.50;;;;;;;10.87;74.83;101226.34;2070778;28;20200;-67
2021/11/08 04:11:49;;;;;;;48.57;27.90;;;;;;;11.62;74.70;101371.84;2071855;28;20185;-67
2021/11/08 04:12:51;;;;;;;52.20;28.33;;;;;;;11.74;74.89;101368.44;2079508;28;20947;-67
2021/11/08 04:13:52;;;;;;;48.93;28.03;;;;;;;11.04;74.63;101266.91;2071887;28;20259;-66
2021/11/08 04:14:52;;;;;;;61.80;29.63;;;;;;;11.56;74.41;101344.94;2071274;28;20432;-67
2021/11/08 04:15:53;;;;;;;54.63;29.17;;;;;;;11.47;74.77;101350.25;2072339;28;20416;-67
2021/11/08 04:16:53;;;;;;;50.10;27.63;;;;;;;11.78;74.72;101398.97;2072658;28;20232;-67
2021/11/08 04:17:55;;;;;;;51.13;28.40;;;;;;;11.77;74.94;101408.47;2072444;28;20265;-67
2021/11/08 04:18:57;;;;;;;50.80;28.53;;;;;;;10.92;74.75;101288.88;2072536;28;20241;-67
2021/11/08 04:19:57;;;;;;;53.43;28.20;;;;;;;11.50;75.00;101368.81;2072737;28;20409;-67
2021/11/08 04:21:00;;;;;;;55.67;28.73;;;;;;;11.59;75.51;101399.66;2070783;28;20436;-67
2021/11/08 04:22:02;;;;;;;58.00;29.30;;;;;;;11.59;75.52;101411.53;2071143;28;20178;-67
2021/11/08 04:23:03;;;;;;;56.27;29.33;;;;;;;11.44;75.62;101401.03;2070630;28;20465;-67
2021/11/08 04:24:05;;;;;;;64.73;29.00;;;;;;;11.48;76.23;101421.22;2063753;28;20568;-67
2021/11/08 04:25:07;;;;;;;65.27;30.20;;;;;;;11.38;76.54;101417.38;2071159;28;20412;-67
2021/11/08 04:26:08;;;;;;;56.33;29.43;;;;;;;11.22;76.63;101395.00;2072260;28;20421;-67
2021/11/08 04:27:10;;;;;;;56.27;29.03;;;;;;;11.25;77.00;101391.41;2072363;28;20408;-67
2021/11/08 04:28:11;;;;;;;65.77;31.83;;;;;;;11.25;77.39;101385.06;2072632;28;20420;-66
2021/11/08 04:29:13;;;;;;;66.30;30.47;;;;;;;11.34;77.26;101393.66;2072454;28;20421;-67
2021/11/08 04:30:15;;;;;;;65.83;30.47;;;;;;;11.27;77.32;101402.09;2072685;28;20177;-67
2021/11/08 04:31:15;;;;;;;66.00;29.60;;;;;;;11.25;77.58;101405.28;2072316;28;20931;-67
2021/11/08 04:32:17;;;;;;;64.87;30.93;;;;;;;11.34;77.46;101408.34;2070528;28;20809;-67
2021/11/08 04:33:31;;;;;;;64.47;31.80;;;;;;;11.43;77.12;101402.25;2072588;28;20177;-67
2021/11/08 04:41:03;;;;;;;84.20;33.70;;;;;;;11.34;77.72;101413.09;2072474;28;20462;-67
2021/11/08 04:42:10;;;;;;;85.20;33.37;;;;;;;11.28;77.88;101425.88;2071494;28;20784;-67
2021/11/08 04:50:57;;;;;;;88.57;34.77;;;;;;;11.01;77.66;101337.06;2072519;28;20397;-67
2021/11/08 04:53:23;;;;;;;88.43;34.13;;;;;;;11.58;77.46;101434.16;2070714;28;20419;-66
2021/11/08 05:23:48;;;;;;;95.80;37.63;;;;;;;11.89;77.08;101400.31;2071623;28;20179;-67
2021/11/08 05:25:09;;;;;;;90.43;36.73;;;;;;;12.02;76.92;101420.75;2071102;28;20717;-67
2021/11/08 05:28:41;;;;;;;101.00;38.13;;;;;;;11.65;76.96;101371.00;2078429;28;20960;-67
2021/11/08 05:30:15;;;;;;;100.70;39.53;;;;;;;12.03;76.82;101413.97;2072277;28;20397;-68
2021/11/08 05:31:16;;;;;;;105.73;39.77;;;;;;;11.54;76.85;101345.34;2072097;28;20424;-68
2021/11/08 05:32:16;;;;;;;102.40;40.13;;;;;;;11.99;76.96;101415.25;2070748;28;20188;-68
2021/11/08 05:33:17;;;;;;;101.77;40.30;;;;;;;12.02;76.87;101409.63;2072115;28;20626;-68
2021/11/08 05:34:18;;;;;;;102.47;41.33;;;;;;;12.07;76.75;101411.13;2071910;28;20594;-68
2021/11/08 05:35:20;;;;;;;102.00;40.17;;;;;;;11.68;76.08;101361.81;2071151;28;20189;-68
2021/11/08 05:36:20;;;;;;;101.70;41.40;;;;;;;12.05;76.27;101417.13;2071328;28;20431;-68
2021/11/08 05:37:22;;;;;;;101.57;43.63;;;;;;;12.07;76.39;101423.06;2071990;28;20421;-68
2021/11/08 05:38:24;;;;;;;105.97;42.90;;;;;;;11.96;76.53;101405.78;2071012;28;20281;-69